Elmwood, Illinois
Current Conditions -  °F | °C
As of 10:54 AM on Thursday 18 Dec 2014 (Local Time) from KPIA Reporting Station
Overcast Overcast  
Wind Chill: 27°   Ceiling: 8000
Heat Index: 27°   Visibility: 10mi
Dew Point: 20°   Wind: 0mph
Humidity: 75%   Direction: NA
Pressure: 30.3"   Gusts: NA
Location:  40.78°N, 89.97°W
Report Text: KPIA 181654Z 00000KT 10SM OVC080 M03/M07 A3030 RMK AO2 SLP271 T10281067
Loading
Personal Weather Stations






























Interactive Weather Map New forecast layout! Learn more

10-Day Weather Forecast

Advertisements
Track Severe Weather on mobile